Camino, California
Current Conditions -  °F | °C
As of 6:35 PM on Wednesday 17 Dec 2014 (Local Time) from KPVF Reporting Station
Overcast Overcast  
Wind Chill: 36°   Ceiling: 4500
Heat Index: 41°   Visibility: 10mi
Dew Point: 39°   Wind: 7mph
Humidity: 93%   Direction: 110°ESE
Pressure: 30.07"   Gusts: NA
Location:  38.74°N, 120.68°W
Report Text: KPVF 180235Z AUTO 11006KT 10SM OVC045 05/04 A3007 RMK AO1
Loading
Personal Weather Stations






























Interactive Weather Map New forecast layout! Learn more

10-Day Weather Forecast

Advertisements
Track Severe Weather on mobile